sensor_id;sensor_type;location;lat;lon;timestamp;P1;durP1;ratioP1;P2;durP2;ratioP2
82495;SDS011;72133;42.522;24.800;2024-02-26T00:02:16;16.75;;;12.75;;
82495;SDS011;72133;42.522;24.800;2024-02-26T00:04:42;15.45;;;13.30;;
82495;SDS011;72133;42.522;24.800;2024-02-26T00:07:07;17.67;;;13.63;;
82495;SDS011;72133;42.522;24.800;2024-02-26T00:09:33;17.48;;;12.52;;
82495;SDS011;72133;42.522;24.800;2024-02-26T00:12:04;13.98;;;11.38;;
82495;SDS011;72133;42.522;24.800;2024-02-26T00:14:30;14.45;;;11.52;;
82495;SDS011;72133;42.522;24.800;2024-02-26T00:16:56;16.70;;;11.52;;
82495;SDS011;72133;42.522;24.800;2024-02-26T00:19:22;17.20;;;13.10;;
82495;SDS011;72133;42.522;24.800;2024-02-26T00:21:47;18.30;;;13.18;;
82495;SDS011;72133;42.522;24.800;2024-02-26T00:24:13;20.30;;;14.98;;
82495;SDS011;72133;42.522;24.800;2024-02-26T00:26:39;22.05;;;16.50;;
82495;SDS011;72133;42.522;24.800;2024-02-26T00:29:04;20.00;;;16.75;;
82495;SDS011;72133;42.522;24.800;2024-02-26T00:31:30;19.38;;;15.55;;
82495;SDS011;72133;42.522;24.800;2024-02-26T00:33:55;22.00;;;16.52;;
82495;SDS011;72133;42.522;24.800;2024-02-26T00:36:21;16.90;;;13.98;;
82495;SDS011;72133;42.522;24.800;2024-02-26T00:38:46;17.27;;;13.13;;
82495;SDS011;72133;42.522;24.800;2024-02-26T00:41:16;25.15;;;17.55;;
82495;SDS011;72133;42.522;24.800;2024-02-26T00:43:43;18.20;;;15.73;;
82495;SDS011;72133;42.522;24.800;2024-02-26T00:46:08;19.77;;;15.23;;
82495;SDS011;72133;42.522;24.800;2024-02-26T00:48:34;19.77;;;15.73;;
82495;SDS011;72133;42.522;24.800;2024-02-26T00:51:00;18.90;;;16.05;;
82495;SDS011;72133;42.522;24.800;2024-02-26T00:53:25;20.33;;;15.95;;
82495;SDS011;72133;42.522;24.800;2024-02-26T00:55:51;20.13;;;16.67;;
82495;SDS011;72133;42.522;24.800;2024-02-26T00:58:17;18.92;;;15.88;;
82495;SDS011;72133;42.522;24.800;2024-02-26T01:00:42;20.83;;;15.60;;
82495;SDS011;72133;42.522;24.800;2024-02-26T01:03:08;18.15;;;14.68;;
82495;SDS011;72133;42.522;24.800;2024-02-26T01:05:35;16.40;;;13.43;;
82495;SDS011;72133;42.522;24.800;2024-02-26T01:08:01;19.80;;;14.57;;
82495;SDS011;72133;42.522;24.800;2024-02-26T01:10:26;15.82;;;13.32;;
82495;SDS011;72133;42.522;24.800;2024-02-26T01:12:52;16.33;;;12.77;;
82495;SDS011;72133;42.522;24.800;2024-02-26T01:15:17;17.00;;;12.75;;
82495;SDS011;72133;42.522;24.800;2024-02-26T01:17:47;17.23;;;13.57;;
82495;SDS011;72133;42.522;24.800;2024-02-26T01:20:12;17.13;;;13.85;;
82495;SDS011;72133;42.522;24.800;2024-02-26T01:22:38;18.63;;;13.23;;
82495;SDS011;72133;42.522;24.800;2024-02-26T01:25:05;18.75;;;15.25;;
82495;SDS011;72133;42.522;24.800;2024-02-26T01:27:32;18.08;;;14.07;;
82495;SDS011;72133;42.522;24.800;2024-02-26T01:29:58;17.45;;;14.13;;
82495;SDS011;72133;42.522;24.800;2024-02-26T01:32:23;18.58;;;14.68;;
82495;SDS011;72133;42.522;24.800;2024-02-26T01:34:49;18.25;;;14.13;;
82495;SDS011;72133;42.522;24.800;2024-02-26T01:37:14;16.15;;;12.18;;
82495;SDS011;72133;42.522;24.800;2024-02-26T01:39:40;15.68;;;12.98;;
82495;SDS011;72133;42.522;24.800;2024-02-26T01:42:06;14.65;;;11.85;;
82495;SDS011;72133;42.522;24.800;2024-02-26T01:44:32;16.33;;;12.90;;
82495;SDS011;72133;42.522;24.800;2024-02-26T01:46:58;15.48;;;12.75;;
82495;SDS011;72133;42.522;24.800;2024-02-26T01:49:24;14.45;;;12.65;;
82495;SDS011;72133;42.522;24.800;2024-02-26T01:51:49;13.55;;;11.80;;
82495;SDS011;72133;42.522;24.800;2024-02-26T01:54:15;14.65;;;11.23;;
82495;SDS011;72133;42.522;24.800;2024-02-26T01:56:41;15.60;;;12.95;;
82495;SDS011;72133;42.522;24.800;2024-02-26T01:59:06;15.35;;;13.43;;
82495;SDS011;72133;42.522;24.800;2024-02-26T02:01:33;14.45;;;12.77;;
82495;SDS011;72133;42.522;24.800;2024-02-26T02:03:59;17.02;;;13.70;;
82495;SDS011;72133;42.522;24.800;2024-02-26T02:06:26;16.77;;;12.73;;
82495;SDS011;72133;42.522;24.800;2024-02-26T02:08:54;17.85;;;13.48;;
82495;SDS011;72133;42.522;24.800;2024-02-26T02:11:19;17.85;;;12.98;;
82495;SDS011;72133;42.522;24.800;2024-02-26T02:13:45;16.58;;;13.13;;
82495;SDS011;72133;42.522;24.800;2024-02-26T02:16:11;17.90;;;12.90;;
82495;SDS011;72133;42.522;24.800;2024-02-26T02:18:37;18.25;;;13.18;;
82495;SDS011;72133;42.522;24.800;2024-02-26T02:21:02;13.68;;;10.82;;
82495;SDS011;72133;42.522;24.800;2024-02-26T02:23:28;18.30;;;12.10;;
82495;SDS011;72133;42.522;24.800;2024-02-26T02:25:54;15.27;;;11.93;;
82495;SDS011;72133;42.522;24.800;2024-02-26T02:28:21;14.23;;;12.52;;
82495;SDS011;72133;42.522;24.800;2024-02-26T02:30:47;17.00;;;12.63;;
82495;SDS011;72133;42.522;24.800;2024-02-26T02:33:13;18.13;;;12.73;;
82495;SDS011;72133;42.522;24.800;2024-02-26T02:35:40;16.45;;;13.05;;
82495;SDS011;72133;42.522;24.800;2024-02-26T02:38:06;17.52;;;13.68;;
82495;SDS011;72133;42.522;24.800;2024-02-26T02:40:31;17.35;;;13.63;;
82495;SDS011;72133;42.522;24.800;2024-02-26T02:42:57;17.73;;;13.95;;
82495;SDS011;72133;42.522;24.800;2024-02-26T02:45:23;17.30;;;14.05;;
82495;SDS011;72133;42.522;24.800;2024-02-26T02:47:49;16.65;;;13.55;;
82495;SDS011;72133;42.522;24.800;2024-02-26T02:50:14;15.93;;;13.27;;
82495;SDS011;72133;42.522;24.800;2024-02-26T02:52:40;15.55;;;13.43;;
82495;SDS011;72133;42.522;24.800;2024-02-26T02:55:06;15.10;;;12.60;;
82495;SDS011;72133;42.522;24.800;2024-02-26T02:57:31;15.60;;;13.90;;
82495;SDS011;72133;42.522;24.800;2024-02-26T02:59:58;20.42;;;15.55;;
82495;SDS011;72133;42.522;24.800;2024-02-26T03:02:23;17.92;;;13.70;;
82495;SDS011;72133;42.522;24.800;2024-02-26T03:04:50;16.80;;;13.18;;
82495;SDS011;72133;42.522;24.800;2024-02-26T03:07:16;18.90;;;14.05;;
82495;SDS011;72133;42.522;24.800;2024-02-26T03:09:41;19.52;;;13.40;;
82495;SDS011;72133;42.522;24.800;2024-02-26T03:12:07;15.70;;;12.65;;
82495;SDS011;72133;42.522;24.800;2024-02-26T03:14:33;15.90;;;12.07;;
82495;SDS011;72133;42.522;24.800;2024-02-26T03:16:58;15.80;;;12.60;;
82495;SDS011;72133;42.522;24.800;2024-02-26T03:19:24;17.08;;;12.38;;
82495;SDS011;72133;42.522;24.800;2024-02-26T03:21:49;16.20;;;13.05;;
82495;SDS011;72133;42.522;24.800;2024-02-26T03:24:15;19.70;;;14.40;;
82495;SDS011;72133;42.522;24.800;2024-02-26T03:26:40;16.45;;;12.50;;
82495;SDS011;72133;42.522;24.800;2024-02-26T03:29:06;16.70;;;13.10;;
82495;SDS011;72133;42.522;24.800;2024-02-26T03:31:31;21.23;;;14.43;;
82495;SDS011;72133;42.522;24.800;2024-02-26T03:33:57;13.65;;;11.98;;
82495;SDS011;72133;42.522;24.800;2024-02-26T03:36:23;16.83;;;12.18;;
82495;SDS011;72133;42.522;24.800;2024-02-26T03:38:48;15.55;;;11.85;;
82495;SDS011;72133;42.522;24.800;2024-02-26T03:41:14;16.38;;;11.77;;
82495;SDS011;72133;42.522;24.800;2024-02-26T03:43:39;17.42;;;12.75;;
82495;SDS011;72133;42.522;24.800;2024-02-26T03:46:09;15.52;;;12.48;;
82495;SDS011;72133;42.522;24.800;2024-02-26T03:48:36;18.17;;;12.65;;
82495;SDS011;72133;42.522;24.800;2024-02-26T03:51:02;17.80;;;13.27;;
82495;SDS011;72133;42.522;24.800;2024-02-26T03:53:27;16.13;;;12.98;;
82495;SDS011;72133;42.522;24.800;2024-02-26T03:55:53;14.95;;;11.75;;
82495;SDS011;72133;42.522;24.800;2024-02-26T03:58:20;16.10;;;11.98;;
82495;SDS011;72133;42.522;24.800;2024-02-26T04:00:46;13.98;;;11.65;;
82495;SDS011;72133;42.522;24.800;2024-02-26T04:03:13;14.55;;;11.02;;
82495;SDS011;72133;42.522;24.800;2024-02-26T04:05:39;14.05;;;11.90;;
82495;SDS011;72133;42.522;24.800;2024-02-26T04:08:05;14.77;;;11.60;;
82495;SDS011;72133;42.522;24.800;2024-02-26T04:10:32;15.65;;;11.88;;
82495;SDS011;72133;42.522;24.800;2024-02-26T04:13:00;14.90;;;12.15;;
82495;SDS011;72133;42.522;24.800;2024-02-26T04:15:26;14.63;;;10.60;;
82495;SDS011;72133;42.522;24.800;2024-02-26T04:17:51;12.63;;;10.18;;
82495;SDS011;72133;42.522;24.800;2024-02-26T04:20:17;13.15;;;10.70;;
82495;SDS011;72133;42.522;24.800;2024-02-26T04:22:42;11.65;;;10.00;;
82495;SDS011;72133;42.522;24.800;2024-02-26T04:25:08;14.57;;;10.90;;
82495;SDS011;72133;42.522;24.800;2024-02-26T04:27:34;13.43;;;11.00;;
82495;SDS011;72133;42.522;24.800;2024-02-26T04:29:59;14.70;;;10.25;;
82495;SDS011;72133;42.522;24.800;2024-02-26T04:32:25;13.90;;;10.05;;
82495;SDS011;72133;42.522;24.800;2024-02-26T04:34:51;19.20;;;10.60;;
82495;SDS011;72133;42.522;24.800;2024-02-26T04:37:17;13.82;;;10.70;;
82495;SDS011;72133;42.522;24.800;2024-02-26T04:39:42;12.95;;;10.85;;
82495;SDS011;72133;42.522;24.800;2024-02-26T04:42:08;13.48;;;10.57;;
82495;SDS011;72133;42.522;24.800;2024-02-26T04:44:33;13.40;;;10.48;;
82495;SDS011;72133;42.522;24.800;2024-02-26T04:46:59;14.85;;;10.23;;
82495;SDS011;72133;42.522;24.800;2024-02-26T04:49:26;13.05;;;10.02;;
82495;SDS011;72133;42.522;24.800;2024-02-26T04:51:52;15.75;;;10.40;;
82495;SDS011;72133;42.522;24.800;2024-02-26T04:54:19;14.45;;;10.35;;
82495;SDS011;72133;42.522;24.800;2024-02-26T04:56:44;13.52;;;10.50;;
82495;SDS011;72133;42.522;24.800;2024-02-26T04:59:10;13.82;;;10.50;;
82495;SDS011;72133;42.522;24.800;2024-02-26T05:01:35;14.77;;;10.80;;
82495;SDS011;72133;42.522;24.800;2024-02-26T05:04:02;15.93;;;12.05;;
82495;SDS011;72133;42.522;24.800;2024-02-26T05:06:28;16.95;;;12.75;;
82495;SDS011;72133;42.522;24.800;2024-02-26T05:08:54;16.15;;;12.18;;
82495;SDS011;72133;42.522;24.800;2024-02-26T05:11:21;17.17;;;11.82;;
82495;SDS011;72133;42.522;24.800;2024-02-26T05:13:47;17.20;;;13.10;;
82495;SDS011;72133;42.522;24.800;2024-02-26T05:16:13;15.73;;;12.63;;
82495;SDS011;72133;42.522;24.800;2024-02-26T05:18:39;11.65;;;9.50;;
82495;SDS011;72133;42.522;24.800;2024-02-26T05:21:04;11.77;;;9.23;;
82495;SDS011;72133;42.522;24.800;2024-02-26T05:23:30;11.30;;;9.15;;
82495;SDS011;72133;42.522;24.800;2024-02-26T05:25:55;12.57;;;9.63;;
82495;SDS011;72133;42.522;24.800;2024-02-26T05:28:21;20.35;;;16.10;;
82495;SDS011;72133;42.522;24.800;2024-02-26T05:30:46;18.92;;;15.77;;
82495;SDS011;72133;42.522;24.800;2024-02-26T05:33:12;13.65;;;9.70;;
82495;SDS011;72133;42.522;24.800;2024-02-26T05:35:37;12.10;;;9.55;;
82495;SDS011;72133;42.522;24.800;2024-02-26T05:38:03;14.93;;;10.52;;
82495;SDS011;72133;42.522;24.800;2024-02-26T05:40:29;17.17;;;13.57;;
82495;SDS011;72133;42.522;24.800;2024-02-26T05:42:55;20.35;;;15.32;;
82495;SDS011;72133;42.522;24.800;2024-02-26T05:45:21;51.15;;;36.40;;
82495;SDS011;72133;42.522;24.800;2024-02-26T05:47:47;52.08;;;36.60;;
82495;SDS011;72133;42.522;24.800;2024-02-26T05:50:13;14.85;;;10.52;;
82495;SDS011;72133;42.522;24.800;2024-02-26T05:52:39;14.88;;;11.13;;
82495;SDS011;72133;42.522;24.800;2024-02-26T05:55:05;13.13;;;10.10;;
82495;SDS011;72133;42.522;24.800;2024-02-26T05:57:31;39.17;;;24.15;;
82495;SDS011;72133;42.522;24.800;2024-02-26T05:59:58;21.55;;;15.63;;
82495;SDS011;72133;42.522;24.800;2024-02-26T06:02:28;35.90;;;25.25;;
82495;SDS011;72133;42.522;24.800;2024-02-26T06:04:54;32.25;;;21.40;;
82495;SDS011;72133;42.522;24.800;2024-02-26T06:07:20;26.88;;;21.45;;
82495;SDS011;72133;42.522;24.800;2024-02-26T06:09:45;17.17;;;13.52;;
82495;SDS011;72133;42.522;24.800;2024-02-26T06:12:11;16.58;;;12.73;;
82495;SDS011;72133;42.522;24.800;2024-02-26T06:14:36;39.08;;;27.70;;
82495;SDS011;72133;42.522;24.800;2024-02-26T06:17:02;14.57;;;10.68;;
82495;SDS011;72133;42.522;24.800;2024-02-26T06:19:27;11.52;;;10.05;;
82495;SDS011;72133;42.522;24.800;2024-02-26T06:21:53;20.42;;;16.25;;
82495;SDS011;72133;42.522;24.800;2024-02-26T06:24:19;15.48;;;11.40;;
82495;SDS011;72133;42.522;24.800;2024-02-26T06:26:45;14.02;;;10.85;;
82495;SDS011;72133;42.522;24.800;2024-02-26T06:29:11;13.98;;;11.50;;
82495;SDS011;72133;42.522;24.800;2024-02-26T06:31:37;15.45;;;11.68;;
82495;SDS011;72133;42.522;24.800;2024-02-26T06:34:02;16.83;;;13.32;;
82495;SDS011;72133;42.522;24.800;2024-02-26T06:36:28;16.40;;;13.35;;
82495;SDS011;72133;42.522;24.800;2024-02-26T06:38:54;17.95;;;15.50;;
82495;SDS011;72133;42.522;24.800;2024-02-26T06:41:19;24.75;;;20.88;;
82495;SDS011;72133;42.522;24.800;2024-02-26T06:43:45;20.67;;;18.05;;
82495;SDS011;72133;42.522;24.800;2024-02-26T06:46:11;19.67;;;16.70;;
82495;SDS011;72133;42.522;24.800;2024-02-26T06:48:36;20.30;;;17.35;;
82495;SDS011;72133;42.522;24.800;2024-02-26T06:51:02;19.10;;;15.27;;
82495;SDS011;72133;42.522;24.800;2024-02-26T06:53:28;17.63;;;15.30;;
82495;SDS011;72133;42.522;24.800;2024-02-26T06:55:54;20.65;;;15.70;;
82495;SDS011;72133;42.522;24.800;2024-02-26T06:58:19;19.67;;;16.67;;
82495;SDS011;72133;42.522;24.800;2024-02-26T07:00:45;17.58;;;15.68;;
82495;SDS011;72133;42.522;24.800;2024-02-26T07:03:11;19.75;;;15.98;;
82495;SDS011;72133;42.522;24.800;2024-02-26T07:05:36;20.80;;;15.55;;
82495;SDS011;72133;42.522;24.800;2024-02-26T07:08:02;18.70;;;15.35;;
82495;SDS011;72133;42.522;24.800;2024-02-26T07:10:28;20.42;;;17.50;;
82495;SDS011;72133;42.522;24.800;2024-02-26T07:12:53;20.35;;;18.00;;
82495;SDS011;72133;42.522;24.800;2024-02-26T07:15:19;20.75;;;17.85;;
82495;SDS011;72133;42.522;24.800;2024-02-26T07:17:44;21.17;;;16.13;;
82495;SDS011;72133;42.522;24.800;2024-02-26T07:20:12;16.02;;;14.40;;
82495;SDS011;72133;42.522;24.800;2024-02-26T07:22:39;18.77;;;14.90;;
82495;SDS011;72133;42.522;24.800;2024-02-26T07:25:04;23.52;;;18.10;;
82495;SDS011;72133;42.522;24.800;2024-02-26T07:27:33;20.73;;;18.10;;
82495;SDS011;72133;42.522;24.800;2024-02-26T07:29:58;17.48;;;12.25;;
82495;SDS011;72133;42.522;24.800;2024-02-26T07:32:24;21.50;;;17.92;;
82495;SDS011;72133;42.522;24.800;2024-02-26T07:34:49;18.70;;;14.63;;
82495;SDS011;72133;42.522;24.800;2024-02-26T07:37:15;14.85;;;12.18;;
82495;SDS011;72133;42.522;24.800;2024-02-26T07:39:40;12.73;;;10.80;;
82495;SDS011;72133;42.522;24.800;2024-02-26T07:42:06;13.02;;;11.63;;
82495;SDS011;72133;42.522;24.800;2024-02-26T07:44:32;14.13;;;10.85;;
82495;SDS011;72133;42.522;24.800;2024-02-26T07:46:58;14.30;;;11.32;;
82495;SDS011;72133;42.522;24.800;2024-02-26T07:49:23;15.23;;;11.82;;
82495;SDS011;72133;42.522;24.800;2024-02-26T07:51:49;15.23;;;12.10;;
82495;SDS011;72133;42.522;24.800;2024-02-26T07:54:15;14.18;;;12.30;;
82495;SDS011;72133;42.522;24.800;2024-02-26T07:56:41;14.30;;;10.88;;
82495;SDS011;72133;42.522;24.800;2024-02-26T07:59:07;13.32;;;10.68;;
82495;SDS011;72133;42.522;24.800;2024-02-26T08:01:33;11.55;;;9.75;;
82495;SDS011;72133;42.522;24.800;2024-02-26T08:03:59;14.32;;;10.00;;
82495;SDS011;72133;42.522;24.800;2024-02-26T08:06:25;13.32;;;10.60;;
82495;SDS011;72133;42.522;24.800;2024-02-26T08:08:50;12.60;;;10.55;;
82495;SDS011;72133;42.522;24.800;2024-02-26T08:11:16;12.90;;;11.38;;
82495;SDS011;72133;42.522;24.800;2024-02-26T08:13:42;14.25;;;11.07;;
82495;SDS011;72133;42.522;24.800;2024-02-26T08:16:07;13.43;;;10.40;;
82495;SDS011;72133;42.522;24.800;2024-02-26T08:18:33;12.65;;;10.32;;
82495;SDS011;72133;42.522;24.800;2024-02-26T08:20:58;12.98;;;10.52;;
82495;SDS011;72133;42.522;24.800;2024-02-26T08:23:24;14.30;;;10.75;;
82495;SDS011;72133;42.522;24.800;2024-02-26T08:25:50;14.43;;;10.15;;
82495;SDS011;72133;42.522;24.800;2024-02-26T08:28:15;13.98;;;9.10;;
82495;SDS011;72133;42.522;24.800;2024-02-26T08:30:43;12.98;;;9.85;;
82495;SDS011;72133;42.522;24.800;2024-02-26T08:33:09;10.80;;;8.93;;
82495;SDS011;72133;42.522;24.800;2024-02-26T08:35:35;10.90;;;9.25;;
82495;SDS011;72133;42.522;24.800;2024-02-26T08:38:01;13.07;;;9.45;;
82495;SDS011;72133;42.522;24.800;2024-02-26T08:40:27;12.15;;;10.10;;
82495;SDS011;72133;42.522;24.800;2024-02-26T08:42:53;11.73;;;8.20;;
82495;SDS011;72133;42.522;24.800;2024-02-26T08:45:19;12.48;;;9.02;;
82495;SDS011;72133;42.522;24.800;2024-02-26T08:47:45;13.00;;;9.70;;
82495;SDS011;72133;42.522;24.800;2024-02-26T08:50:11;13.23;;;11.52;;
82495;SDS011;72133;42.522;24.800;2024-02-26T08:52:37;15.20;;;10.45;;
82495;SDS011;72133;42.522;24.800;2024-02-26T08:55:03;15.48;;;10.05;;
82495;SDS011;72133;42.522;24.800;2024-02-26T08:57:30;15.73;;;10.75;;
82495;SDS011;72133;42.522;24.800;2024-02-26T08:59:58;12.35;;;9.77;;
82495;SDS011;72133;42.522;24.800;2024-02-26T09:02:25;14.05;;;10.43;;
82495;SDS011;72133;42.522;24.800;2024-02-26T09:04:51;11.05;;;9.85;;
82495;SDS011;72133;42.522;24.800;2024-02-26T09:07:18;11.50;;;9.85;;
82495;SDS011;72133;42.522;24.800;2024-02-26T09:09:44;10.85;;;9.45;;
82495;SDS011;72133;42.522;24.800;2024-02-26T09:12:09;12.25;;;9.38;;
82495;SDS011;72133;42.522;24.800;2024-02-26T09:14:35;10.65;;;8.82;;
82495;SDS011;72133;42.522;24.800;2024-02-26T09:17:01;11.98;;;8.13;;
82495;SDS011;72133;42.522;24.800;2024-02-26T09:19:26;11.50;;;7.90;;
82495;SDS011;72133;42.522;24.800;2024-02-26T09:21:55;16.38;;;14.77;;
82495;SDS011;72133;42.522;24.800;2024-02-26T09:24:23;12.75;;;8.30;;
82495;SDS011;72133;42.522;24.800;2024-02-26T09:26:49;10.95;;;8.55;;
82495;SDS011;72133;42.522;24.800;2024-02-26T09:29:14;14.52;;;9.20;;
82495;SDS011;72133;42.522;24.800;2024-02-26T09:31:40;10.90;;;7.72;;
82495;SDS011;72133;42.522;24.800;2024-02-26T09:34:06;11.25;;;7.03;;
82495;SDS011;72133;42.522;24.800;2024-02-26T09:36:33;7.40;;;6.50;;
82495;SDS011;72133;42.522;24.800;2024-02-26T09:38:59;8.00;;;6.40;;
82495;SDS011;72133;42.522;24.800;2024-02-26T09:41:25;7.90;;;6.28;;
82495;SDS011;72133;42.522;24.800;2024-02-26T09:43:54;9.45;;;6.05;;
82495;SDS011;72133;42.522;24.800;2024-02-26T09:46:23;10.85;;;6.82;;
82495;SDS011;72133;42.522;24.800;2024-02-26T09:48:49;17.60;;;15.77;;
82495;SDS011;72133;42.522;24.800;2024-02-26T09:51:15;9.20;;;6.13;;
82495;SDS011;72133;42.522;24.800;2024-02-26T09:53:43;8.02;;;6.60;;
82495;SDS011;72133;42.522;24.800;2024-02-26T09:56:11;11.90;;;9.18;;
82495;SDS011;72133;42.522;24.800;2024-02-26T09:58:37;8.02;;;6.32;;
82495;SDS011;72133;42.522;24.800;2024-02-26T10:01:05;8.02;;;5.45;;
82495;SDS011;72133;42.522;24.800;2024-02-26T10:03:37;7.38;;;5.82;;
82495;SDS011;72133;42.522;24.800;2024-02-26T10:06:06;6.97;;;5.00;;
82495;SDS011;72133;42.522;24.800;2024-02-26T10:08:33;7.53;;;5.70;;
82495;SDS011;72133;42.522;24.800;2024-02-26T10:11:00;7.28;;;4.53;;
82495;SDS011;72133;42.522;24.800;2024-02-26T10:13:26;6.05;;;4.07;;
82495;SDS011;72133;42.522;24.800;2024-02-26T10:15:52;7.78;;;4.07;;
82495;SDS011;72133;42.522;24.800;2024-02-26T10:18:18;6.15;;;4.20;;
82495;SDS011;72133;42.522;24.800;2024-02-26T10:21:05;7.82;;;4.25;;
82495;SDS011;72133;42.522;24.800;2024-02-26T10:23:30;7.32;;;3.97;;
82495;SDS011;72133;42.522;24.800;2024-02-26T10:25:55;8.35;;;6.00;;
82495;SDS011;72133;42.522;24.800;2024-02-26T10:28:22;8.02;;;4.65;;
82495;SDS011;72133;42.522;24.800;2024-02-26T10:30:48;22.95;;;16.85;;
82495;SDS011;72133;42.522;24.800;2024-02-26T10:33:13;12.93;;;9.13;;
82495;SDS011;72133;42.522;24.800;2024-02-26T10:35:40;10.60;;;3.90;;
82495;SDS011;72133;42.522;24.800;2024-02-26T10:38:10;7.05;;;3.55;;
82495;SDS011;72133;42.522;24.800;2024-02-26T10:40:36;5.50;;;3.80;;
82495;SDS011;72133;42.522;24.800;2024-02-26T10:43:02;6.13;;;3.47;;
82495;SDS011;72133;42.522;24.800;2024-02-26T10:45:27;5.35;;;3.70;;
82495;SDS011;72133;42.522;24.800;2024-02-26T10:47:53;6.80;;;4.30;;
82495;SDS011;72133;42.522;24.800;2024-02-26T10:50:19;8.45;;;4.22;;
82495;SDS011;72133;42.522;24.800;2024-02-26T10:52:45;5.70;;;3.72;;
82495;SDS011;72133;42.522;24.800;2024-02-26T10:55:13;7.03;;;3.78;;
82495;SDS011;72133;42.522;24.800;2024-02-26T10:57:43;5.75;;;3.78;;
82495;SDS011;72133;42.522;24.800;2024-02-26T11:00:10;8.25;;;3.33;;
82495;SDS011;72133;42.522;24.800;2024-02-26T11:02:38;7.60;;;4.00;;
82495;SDS011;72133;42.522;24.800;2024-02-26T11:05:06;6.72;;;3.80;;
82495;SDS011;72133;42.522;24.800;2024-02-26T11:07:35;5.88;;;3.45;;
82495;SDS011;72133;42.522;24.800;2024-02-26T11:10:02;5.53;;;3.55;;
82495;SDS011;72133;42.522;24.800;2024-02-26T11:12:30;6.57;;;4.40;;
82495;SDS011;72133;42.522;24.800;2024-02-26T11:14:57;7.90;;;4.85;;
82495;SDS011;72133;42.522;24.800;2024-02-26T11:17:27;7.72;;;5.10;;
82495;SDS011;72133;42.522;24.800;2024-02-26T11:19:56;9.80;;;6.30;;
82495;SDS011;72133;42.522;24.800;2024-02-26T11:22:28;11.40;;;7.80;;
82495;SDS011;72133;42.522;24.800;2024-02-26T11:24:54;13.25;;;7.93;;
82495;SDS011;72133;42.522;24.800;2024-02-26T11:27:39;11.82;;;7.70;;
82495;SDS011;72133;42.522;24.800;2024-02-26T11:30:13;10.85;;;6.72;;
82495;SDS011;72133;42.522;24.800;2024-02-26T11:32:39;9.38;;;6.05;;
82495;SDS011;72133;42.522;24.800;2024-02-26T11:35:05;12.70;;;7.30;;
82495;SDS011;72133;42.522;24.800;2024-02-26T11:37:32;10.70;;;5.85;;
82495;SDS011;72133;42.522;24.800;2024-02-26T11:39:58;9.55;;;6.22;;
82495;SDS011;72133;42.522;24.800;2024-02-26T11:42:24;9.27;;;6.25;;
82495;SDS011;72133;42.522;24.800;2024-02-26T11:44:51;8.50;;;6.05;;
82495;SDS011;72133;42.522;24.800;2024-02-26T11:47:20;10.98;;;6.22;;
82495;SDS011;72133;42.522;24.800;2024-02-26T11:49:47;9.23;;;6.55;;
82495;SDS011;72133;42.522;24.800;2024-02-26T11:52:13;8.40;;;4.80;;
82495;SDS011;72133;42.522;24.800;2024-02-26T11:54:43;9.27;;;5.57;;
82495;SDS011;72133;42.522;24.800;2024-02-26T12:00:10;8.48;;;4.75;;
82495;SDS011;72133;42.522;24.800;2024-02-26T12:02:49;6.93;;;4.78;;
82495;SDS011;72133;42.522;24.800;2024-02-26T12:05:23;6.97;;;4.80;;
82495;SDS011;72133;42.522;24.800;2024-02-26T12:12:52;8.90;;;4.50;;
82495;SDS011;72133;42.522;24.800;2024-02-26T12:15:18;8.27;;;5.50;;
82495;SDS011;72133;42.522;24.800;2024-02-26T12:17:48;7.80;;;4.78;;
82495;SDS011;72133;42.522;24.800;2024-02-26T12:20:14;8.52;;;4.78;;
82495;SDS011;72133;42.522;24.800;2024-02-26T12:22:44;7.45;;;4.80;;
82495;SDS011;72133;42.522;24.800;2024-02-26T12:25:10;9.23;;;5.05;;
82495;SDS011;72133;42.522;24.800;2024-02-26T12:27:36;11.48;;;4.82;;
82495;SDS011;72133;42.522;24.800;2024-02-26T12:30:02;9.20;;;4.30;;
82495;SDS011;72133;42.522;24.800;2024-02-26T12:32:28;9.40;;;4.57;;
82495;SDS011;72133;42.522;24.800;2024-02-26T12:34:54;7.30;;;4.45;;
82495;SDS011;72133;42.522;24.800;2024-02-26T12:37:19;6.82;;;3.72;;
82495;SDS011;72133;42.522;24.800;2024-02-26T12:39:45;6.85;;;4.22;;
82495;SDS011;72133;42.522;24.800;2024-02-26T12:42:11;7.20;;;4.35;;
82495;SDS011;72133;42.522;24.800;2024-02-26T12:44:37;7.65;;;4.13;;
82495;SDS011;72133;42.522;24.800;2024-02-26T12:47:03;9.90;;;4.00;;
82495;SDS011;72133;42.522;24.800;2024-02-26T12:49:29;7.78;;;4.35;;
82495;SDS011;72133;42.522;24.800;2024-02-26T12:51:54;6.40;;;3.92;;
82495;SDS011;72133;42.522;24.800;2024-02-26T12:54:29;8.70;;;4.05;;
82495;SDS011;72133;42.522;24.800;2024-02-26T12:56:56;9.45;;;4.43;;
82495;SDS011;72133;42.522;24.800;2024-02-26T12:59:23;7.38;;;4.20;;
82495;SDS011;72133;42.522;24.800;2024-02-26T13:01:48;7.57;;;4.03;;
82495;SDS011;72133;42.522;24.800;2024-02-26T13:04:14;5.88;;;4.18;;
82495;SDS011;72133;42.522;24.800;2024-02-26T13:06:40;8.07;;;4.13;;
82495;SDS011;72133;42.522;24.800;2024-02-26T13:09:05;6.80;;;4.80;;
82495;SDS011;72133;42.522;24.800;2024-02-26T13:11:31;7.28;;;4.60;;
82495;SDS011;72133;42.522;24.800;2024-02-26T13:13:58;6.32;;;4.45;;
82495;SDS011;72133;42.522;24.800;2024-02-26T13:16:24;6.93;;;4.60;;
82495;SDS011;72133;42.522;24.800;2024-02-26T13:18:51;6.40;;;4.60;;
82495;SDS011;72133;42.522;24.800;2024-02-26T13:21:17;11.70;;;7.75;;
82495;SDS011;72133;42.522;24.800;2024-02-26T13:23:45;31.20;;;19.67;;
82495;SDS011;72133;42.522;24.800;2024-02-26T13:26:14;8.98;;;5.00;;
82495;SDS011;72133;42.522;24.800;2024-02-26T13:28:40;6.82;;;4.65;;
82495;SDS011;72133;42.522;24.800;2024-02-26T13:31:06;11.05;;;5.30;;
82495;SDS011;72133;42.522;24.800;2024-02-26T13:33:33;8.75;;;4.97;;
82495;SDS011;72133;42.522;24.800;2024-02-26T13:35:59;8.23;;;4.65;;
82495;SDS011;72133;42.522;24.800;2024-02-26T13:38:25;9.20;;;4.65;;
82495;SDS011;72133;42.522;24.800;2024-02-26T13:40:51;10.18;;;4.47;;
82495;SDS011;72133;42.522;24.800;2024-02-26T13:43:17;6.05;;;4.57;;
82495;SDS011;72133;42.522;24.800;2024-02-26T13:45:44;7.93;;;5.07;;
82495;SDS011;72133;42.522;24.800;2024-02-26T13:48:10;7.60;;;4.63;;
82495;SDS011;72133;42.522;24.800;2024-02-26T13:50:36;7.80;;;4.60;;
82495;SDS011;72133;42.522;24.800;2024-02-26T13:53:03;6.93;;;4.45;;
82495;SDS011;72133;42.522;24.800;2024-02-26T13:55:29;7.43;;;5.00;;
82495;SDS011;72133;42.522;24.800;2024-02-26T13:57:57;6.57;;;5.10;;
82495;SDS011;72133;42.522;24.800;2024-02-26T14:00:23;6.90;;;5.57;;
82495;SDS011;72133;42.522;24.800;2024-02-26T14:02:50;7.38;;;5.35;;
82495;SDS011;72133;42.522;24.800;2024-02-26T14:05:15;9.80;;;6.85;;
82495;SDS011;72133;42.522;24.800;2024-02-26T14:07:41;6.55;;;5.80;;
82495;SDS011;72133;42.522;24.800;2024-02-26T14:10:07;5.93;;;5.13;;
82495;SDS011;72133;42.522;24.800;2024-02-26T14:12:35;8.20;;;5.85;;
82495;SDS011;72133;42.522;24.800;2024-02-26T14:15:01;10.40;;;8.23;;
82495;SDS011;72133;42.522;24.800;2024-02-26T14:17:29;6.95;;;5.10;;
82495;SDS011;72133;42.522;24.800;2024-02-26T14:19:55;7.75;;;5.68;;
82495;SDS011;72133;42.522;24.800;2024-02-26T14:22:20;7.63;;;6.10;;